AFL081 UWWW-URSS
Flight info
| Callsign | AFL081 |
|---|---|
| Flight time | 2h 14m |
| Altitude | 36000 |
| Route | NIDOG2Y NIDOG T790 RORNA T789 DAFOS P135 KR G900 OBABI/K0833F370 G900 ER B145 SUDIR N166 ADNET W79 BINOL BINOL1K |
| Aircraft | A321/M-SDE3FGHIRWY/LB1 |
Departure
| Time | 2026-05-05 09:47 |
|---|---|
| Airport | Kurumoch International Airport (UWWW) |
Arrival
| Time | 2026-05-05 12:02 |
|---|---|
| Airport | Sochi International Airport (URSS) |
| Time | Latitude | Longitude | Altitude | Speed | Heading |
|---|---|---|---|---|---|
| 2026-05-05 09:30 | 53.51185 | 50.15998 | 447 ft | 0 kts | 332° |
| 2026-05-05 09:41 | 53.51178 | 50.16004 | 447 ft | 2 kts | 332° |
| 2026-05-05 09:41 | 53.51168 | 50.16013 | 447 ft | 2 kts | 332° |
| 2026-05-05 09:41 | 53.51157 | 50.16023 | 447 ft | 2 kts | 332° |
| 2026-05-05 09:41 | 53.51147 | 50.16032 | 447 ft | 2 kts | 340° |
| 2026-05-05 09:42 | 53.51136 | 50.16038 | 447 ft | 2 kts | 6° |
| 2026-05-05 09:42 | 53.51127 | 50.16035 | 447 ft | 0 kts | 27° |
| 2026-05-05 09:43 | 53.51144 | 50.16079 | 447 ft | 10 kts | 59° |
| 2026-05-05 09:43 | 53.51167 | 50.16179 | 447 ft | 9 kts | 67° |
| 2026-05-05 09:43 | 53.51197 | 50.16284 | 447 ft | 13 kts | 63° |
| 2026-05-05 09:44 | 53.51262 | 50.16483 | 447 ft | 23 kts | 62° |
| 2026-05-05 09:44 | 53.51325 | 50.16674 | 447 ft | 17 kts | 54° |
| 2026-05-05 09:44 | 53.51437 | 50.16676 | 447 ft | 22 kts | 341° |
| 2026-05-05 09:44 | 53.51606 | 50.16570 | 447 ft | 27 kts | 340° |
| 2026-05-05 09:45 | 53.51776 | 50.16583 | 447 ft | 24 kts | 42° |
| 2026-05-05 09:45 | 53.51816 | 50.16811 | 450 ft | 19 kts | 109° |
| 2026-05-05 09:45 | 53.51748 | 50.16910 | 451 ft | 0 kts | 159° |
| 2026-05-05 09:46 | 53.51746 | 50.16911 | 451 ft | 3 kts | 159° |
| 2026-05-05 09:46 | 53.51555 | 50.17030 | 451 ft | 65 kts | 160° |
| 2026-05-05 09:47 | 53.50923 | 50.17401 | 439 ft | 124 kts | 160° |
| 2026-05-05 09:47 | 53.49957 | 50.17958 | 514 ft | 161 kts | 162° |
| 2026-05-05 09:47 | 53.48899 | 50.18580 | 1053 ft | 165 kts | 163° |
| 2026-05-05 09:47 | 53.47761 | 50.19263 | 1296 ft | 186 kts | 163° |
| 2026-05-05 09:48 | 53.46479 | 50.20029 | 1423 ft | 206 kts | 162° |
| 2026-05-05 09:48 | 53.45091 | 50.20859 | 1814 ft | 213 kts | 162° |
| 2026-05-05 09:48 | 53.43681 | 50.21707 | 2304 ft | 217 kts | 162° |
| 2026-05-05 09:48 | 53.42260 | 50.22578 | 3038 ft | 218 kts | 158° |
| 2026-05-05 09:49 | 53.41102 | 50.24217 | 3587 ft | 225 kts | 120° |
| 2026-05-05 09:49 | 53.40791 | 50.26863 | 3870 ft | 247 kts | 85° |
| 2026-05-05 09:49 | 53.41194 | 50.29816 | 4171 ft | 270 kts | 72° |
| 2026-05-05 09:49 | 53.41878 | 50.32800 | 4865 ft | 277 kts | 67° |
| 2026-05-05 09:50 | 53.42626 | 50.35746 | 5711 ft | 278 kts | 66° |
| 2026-05-05 09:50 | 53.43628 | 50.38517 | 6545 ft | 279 kts | 49° |
| 2026-05-05 09:50 | 53.45063 | 50.40713 | 7349 ft | 280 kts | 34° |
| 2026-05-05 09:50 | 53.46748 | 50.42369 | 8146 ft | 281 kts | 29° |
| 2026-05-05 09:51 | 53.48457 | 50.44007 | 8956 ft | 284 kts | 30° |
| 2026-05-05 09:51 | 53.50169 | 50.45673 | 9766 ft | 285 kts | 30° |
| 2026-05-05 09:51 | 53.51909 | 50.47375 | 10271 ft | 298 kts | 30° |
| 2026-05-05 09:51 | 53.53777 | 50.49199 | 10438 ft | 322 kts | 30° |
| 2026-05-05 09:52 | 53.55105 | 50.50433 | 10573 ft | 334 kts | 24° |
| 2026-05-05 09:52 | 53.58140 | 50.51487 | 11307 ft | 343 kts | 358° |
| 2026-05-05 09:52 | 53.60481 | 50.50701 | 11996 ft | 346 kts | 339° |
| 2026-05-05 09:52 | 53.61898 | 50.49447 | 12457 ft | 349 kts | 325° |
| 2026-05-05 09:53 | 53.63637 | 50.46581 | 13118 ft | 353 kts | 308° |
| 2026-05-05 09:53 | 53.65097 | 50.43220 | 13838 ft | 356 kts | 307° |
| 2026-05-05 09:53 | 53.66527 | 50.39782 | 14424 ft | 360 kts | 301° |
| 2026-05-05 09:53 | 53.67450 | 50.35836 | 15054 ft | 365 kts | 283° |
| 2026-05-05 09:54 | 53.67610 | 50.31553 | 15637 ft | 370 kts | 265° |
| 2026-05-05 09:54 | 53.66957 | 50.27332 | 16216 ft | 377 kts | 247° |
| 2026-05-05 09:54 | 53.65530 | 50.23594 | 16797 ft | 382 kts | 231° |
| 2026-05-05 09:54 | 53.63766 | 50.20275 | 17369 ft | 386 kts | 229° |
| 2026-05-05 09:55 | 53.61954 | 50.16909 | 17973 ft | 389 kts | 229° |
| 2026-05-05 09:55 | 53.60124 | 50.13530 | 18499 ft | 392 kts | 229° |
| 2026-05-05 09:55 | 53.58275 | 50.10125 | 18996 ft | 395 kts | 229° |
| 2026-05-05 09:55 | 53.56417 | 50.06709 | 19493 ft | 397 kts | 229° |
| 2026-05-05 09:56 | 53.54543 | 50.03259 | 19983 ft | 400 kts | 229° |
| 2026-05-05 09:56 | 53.52659 | 49.99786 | 20462 ft | 402 kts | 230° |
| 2026-05-05 09:56 | 53.50787 | 49.96338 | 20948 ft | 405 kts | 230° |
| 2026-05-05 09:56 | 53.48880 | 49.92819 | 21414 ft | 408 kts | 230° |
| 2026-05-05 09:57 | 53.46959 | 49.89273 | 21875 ft | 410 kts | 230° |
| 2026-05-05 09:57 | 53.45028 | 49.85718 | 22348 ft | 413 kts | 230° |
| 2026-05-05 09:57 | 53.43074 | 49.82136 | 22790 ft | 417 kts | 230° |
| 2026-05-05 09:57 | 53.41106 | 49.78542 | 23231 ft | 420 kts | 230° |
| 2026-05-05 09:58 | 53.39118 | 49.74905 | 23645 ft | 422 kts | 231° |
| 2026-05-05 09:58 | 53.37393 | 49.71009 | 23980 ft | 422 kts | 241° |
| 2026-05-05 09:58 | 53.36074 | 49.66624 | 24343 ft | 422 kts | 251° |
| 2026-05-05 09:58 | 53.35222 | 49.61918 | 24702 ft | 421 kts | 259° |
| 2026-05-05 09:59 | 53.34559 | 49.57105 | 25113 ft | 423 kts | 259° |
| 2026-05-05 09:59 | 53.33894 | 49.52359 | 25512 ft | 424 kts | 259° |
| 2026-05-05 09:59 | 53.33210 | 49.47535 | 25886 ft | 426 kts | 259° |
| 2026-05-05 09:59 | 53.32514 | 49.42696 | 26245 ft | 429 kts | 258° |
| 2026-05-05 10:00 | 53.31811 | 49.37826 | 26582 ft | 431 kts | 258° |
| 2026-05-05 10:00 | 53.31103 | 49.32927 | 26942 ft | 433 kts | 258° |
| 2026-05-05 10:00 | 53.30402 | 49.28078 | 27281 ft | 436 kts | 258° |
| 2026-05-05 10:00 | 53.29684 | 49.23137 | 27618 ft | 438 kts | 258° |
| 2026-05-05 10:01 | 53.28960 | 49.18171 | 27923 ft | 441 kts | 258° |
| 2026-05-05 10:01 | 53.28229 | 49.13169 | 28243 ft | 444 kts | 258° |
| 2026-05-05 10:01 | 53.27492 | 49.08151 | 28558 ft | 446 kts | 258° |
| 2026-05-05 10:01 | 53.26749 | 49.03105 | 28873 ft | 448 kts | 258° |
| 2026-05-05 10:02 | 53.25903 | 48.98072 | 29182 ft | 451 kts | 252° |
| 2026-05-05 10:02 | 53.24838 | 48.93132 | 29473 ft | 454 kts | 252° |
| 2026-05-05 10:02 | 53.23762 | 48.88151 | 29780 ft | 456 kts | 251° |
| 2026-05-05 10:02 | 53.22682 | 48.83155 | 30073 ft | 458 kts | 251° |
| 2026-05-05 10:03 | 53.21591 | 48.78141 | 30328 ft | 460 kts | 251° |
| 2026-05-05 10:03 | 53.20493 | 48.73124 | 30665 ft | 459 kts | 251° |
| 2026-05-05 10:03 | 53.19409 | 48.68182 | 31042 ft | 459 kts | 251° |
| 2026-05-05 10:03 | 53.18311 | 48.63186 | 31412 ft | 458 kts | 251° |
| 2026-05-05 10:04 | 53.17213 | 48.58200 | 31797 ft | 457 kts | 251° |
| 2026-05-05 10:04 | 53.16115 | 48.53231 | 32197 ft | 456 kts | 251° |
| 2026-05-05 10:04 | 53.15019 | 48.48276 | 32586 ft | 455 kts | 251° |
| 2026-05-05 10:04 | 53.13924 | 48.43329 | 32970 ft | 454 kts | 251° |
| 2026-05-05 10:05 | 53.12831 | 48.38393 | 33355 ft | 453 kts | 250° |
| 2026-05-05 10:05 | 53.11737 | 48.33478 | 33748 ft | 452 kts | 251° |
| 2026-05-05 10:05 | 53.10652 | 48.28619 | 34111 ft | 451 kts | 250° |
| 2026-05-05 10:05 | 53.09528 | 48.23734 | 34428 ft | 450 kts | 250° |
| 2026-05-05 10:06 | 53.08376 | 48.18883 | 34703 ft | 450 kts | 249° |
| 2026-05-05 10:06 | 53.07204 | 48.14051 | 35061 ft | 447 kts | 249° |
| 2026-05-05 10:06 | 53.06045 | 48.09318 | 35404 ft | 445 kts | 249° |
| 2026-05-05 10:06 | 53.04879 | 48.04562 | 35741 ft | 443 kts | 249° |
| 2026-05-05 10:07 | 53.03720 | 47.99814 | 35944 ft | 442 kts | 248° |
| 2026-05-05 10:07 | 53.02570 | 47.95079 | 35978 ft | 439 kts | 249° |
| 2026-05-05 10:07 | 53.00307 | 47.85720 | 35978 ft | 437 kts | 249° |
| 2026-05-05 10:08 | 52.98053 | 47.76420 | 35968 ft | 437 kts | 249° |
| 2026-05-05 10:08 | 52.95748 | 47.66994 | 35976 ft | 446 kts | 249° |
| 2026-05-05 10:09 | 52.93377 | 47.57349 | 35975 ft | 457 kts | 248° |
| 2026-05-05 10:09 | 52.90945 | 47.47528 | 35974 ft | 464 kts | 248° |
| 2026-05-05 10:10 | 52.88507 | 47.37686 | 35977 ft | 465 kts | 248° |
| 2026-05-05 10:10 | 52.86049 | 47.27759 | 35982 ft | 466 kts | 248° |
| 2026-05-05 10:11 | 52.83469 | 47.17887 | 35977 ft | 468 kts | 241° |
| 2026-05-05 10:11 | 52.81652 | 47.13424 | 35979 ft | 468 kts | 230° |
| 2026-05-05 10:11 | 52.79410 | 47.09621 | 35976 ft | 469 kts | 220° |
| 2026-05-05 10:12 | 52.73860 | 47.03947 | 35982 ft | 470 kts | 208° |
| 2026-05-05 10:12 | 52.68064 | 46.98929 | 35985 ft | 470 kts | 208° |
| 2026-05-05 10:13 | 52.62308 | 46.93942 | 35990 ft | 471 kts | 208° |
| 2026-05-05 10:13 | 52.56501 | 46.88919 | 35989 ft | 471 kts | 208° |
| 2026-05-05 10:14 | 52.50685 | 46.83905 | 35992 ft | 471 kts | 207° |
| 2026-05-05 10:14 | 52.44912 | 46.78946 | 35989 ft | 471 kts | 207° |
| 2026-05-05 10:15 | 52.39087 | 46.73951 | 35993 ft | 472 kts | 207° |
| 2026-05-05 10:15 | 52.33291 | 46.68995 | 35997 ft | 472 kts | 207° |
| 2026-05-05 10:16 | 52.27451 | 46.64033 | 36001 ft | 472 kts | 207° |
| 2026-05-05 10:16 | 52.21614 | 46.59085 | 36002 ft | 472 kts | 207° |
| 2026-05-05 10:17 | 52.15813 | 46.54169 | 36005 ft | 472 kts | 207° |
| 2026-05-05 10:17 | 52.09986 | 46.49243 | 36008 ft | 471 kts | 207° |
| 2026-05-05 10:18 | 52.04171 | 46.44350 | 35986 ft | 469 kts | 207° |
| 2026-05-05 10:18 | 51.98404 | 46.39514 | 35984 ft | 469 kts | 207° |
| 2026-05-05 10:19 | 51.92589 | 46.34651 | 35977 ft | 469 kts | 207° |
| 2026-05-05 10:19 | 51.86794 | 46.29827 | 35979 ft | 468 kts | 207° |
| 2026-05-05 10:20 | 51.80982 | 46.25005 | 35982 ft | 469 kts | 206° |
| 2026-05-05 10:20 | 51.75212 | 46.20227 | 35987 ft | 469 kts | 206° |
| 2026-05-05 10:21 | 51.69394 | 46.15412 | 35989 ft | 469 kts | 207° |
| 2026-05-05 10:21 | 51.63578 | 46.10604 | 35991 ft | 469 kts | 207° |
| 2026-05-05 10:22 | 51.57794 | 46.05851 | 35995 ft | 469 kts | 207° |
| 2026-05-05 10:22 | 51.51934 | 46.01171 | 35998 ft | 469 kts | 205° |
| 2026-05-05 10:23 | 51.46046 | 45.96729 | 35986 ft | 468 kts | 205° |
| 2026-05-05 10:23 | 51.40140 | 45.92315 | 35996 ft | 467 kts | 205° |
| 2026-05-05 10:24 | 51.34290 | 45.87892 | 35994 ft | 467 kts | 205° |
| 2026-05-05 10:24 | 51.28413 | 45.83432 | 35994 ft | 466 kts | 205° |
| 2026-05-05 10:25 | 51.22545 | 45.78992 | 36002 ft | 466 kts | 205° |
| 2026-05-05 10:25 | 51.16710 | 45.74609 | 35999 ft | 465 kts | 205° |
| 2026-05-05 10:26 | 51.10847 | 45.70210 | 35996 ft | 465 kts | 205° |
| 2026-05-05 10:26 | 51.04980 | 45.65828 | 36000 ft | 465 kts | 206° |
| 2026-05-05 10:27 | 50.99621 | 45.60075 | 36002 ft | 466 kts | 218° |
| 2026-05-05 10:27 | 50.94530 | 45.53694 | 36011 ft | 467 kts | 218° |
| 2026-05-05 10:28 | 50.89418 | 45.47346 | 36008 ft | 467 kts | 217° |
| 2026-05-05 10:28 | 50.84265 | 45.41065 | 36016 ft | 467 kts | 216° |
| 2026-05-05 10:29 | 50.79020 | 45.34985 | 36019 ft | 467 kts | 215° |
| 2026-05-05 10:29 | 50.73772 | 45.29003 | 36021 ft | 467 kts | 215° |
| 2026-05-05 10:30 | 50.68509 | 45.22963 | 36024 ft | 467 kts | 215° |
| 2026-05-05 10:30 | 50.63257 | 45.16910 | 36023 ft | 467 kts | 216° |
| 2026-05-05 10:31 | 50.58003 | 45.10867 | 36024 ft | 467 kts | 216° |
| 2026-05-05 10:31 | 50.52741 | 45.04843 | 36022 ft | 468 kts | 215° |
| 2026-05-05 10:32 | 50.47497 | 44.98856 | 36025 ft | 468 kts | 215° |
| 2026-05-05 10:32 | 50.42220 | 44.92844 | 36025 ft | 468 kts | 215° |
| 2026-05-05 10:33 | 50.36934 | 44.86839 | 36028 ft | 468 kts | 215° |
| 2026-05-05 10:33 | 50.31679 | 44.80889 | 36026 ft | 469 kts | 215° |
| 2026-05-05 10:34 | 50.26383 | 44.74912 | 36027 ft | 469 kts | 215° |
| 2026-05-05 10:34 | 50.21076 | 44.68943 | 36028 ft | 469 kts | 215° |
| 2026-05-05 10:35 | 50.15771 | 44.62988 | 36028 ft | 469 kts | 215° |
| 2026-05-05 10:35 | 50.10463 | 44.57044 | 36002 ft | 469 kts | 215° |
| 2026-05-05 10:36 | 50.05180 | 44.51154 | 36006 ft | 470 kts | 215° |
| 2026-05-05 10:36 | 49.99844 | 44.45229 | 36007 ft | 470 kts | 214° |
| 2026-05-05 10:37 | 49.94514 | 44.39313 | 36008 ft | 471 kts | 214° |
| 2026-05-05 10:37 | 49.89179 | 44.33404 | 36012 ft | 472 kts | 214° |
| 2026-05-05 10:38 | 49.83846 | 44.27531 | 36016 ft | 473 kts | 214° |
| 2026-05-05 10:38 | 49.79382 | 44.22617 | 36020 ft | 473 kts | 214° |
| 2026-05-05 10:39 | 49.74014 | 44.16704 | 36024 ft | 473 kts | 214° |
| 2026-05-05 10:39 | 49.68639 | 44.10814 | 36025 ft | 473 kts | 214° |
| 2026-05-05 10:40 | 49.63261 | 44.04951 | 36028 ft | 473 kts | 214° |
| 2026-05-05 10:40 | 49.57910 | 43.99127 | 36029 ft | 473 kts | 214° |
| 2026-05-05 10:41 | 49.52520 | 43.93276 | 36026 ft | 474 kts | 214° |
| 2026-05-05 10:41 | 49.47025 | 43.87655 | 36025 ft | 473 kts | 211° |
| 2026-05-05 10:42 | 49.38555 | 43.79831 | 36031 ft | 473 kts | 210° |
| 2026-05-05 10:43 | 49.32937 | 43.74635 | 36035 ft | 474 kts | 210° |
| 2026-05-05 10:43 | 49.27308 | 43.69324 | 36028 ft | 475 kts | 210° |
| 2026-05-05 10:44 | 49.22014 | 43.63253 | 36026 ft | 476 kts | 217° |
| 2026-05-05 10:44 | 49.16815 | 43.56948 | 36026 ft | 476 kts | 217° |
| 2026-05-05 10:45 | 49.11603 | 43.50682 | 36027 ft | 477 kts | 217° |
| 2026-05-05 10:45 | 49.06410 | 43.44459 | 36025 ft | 477 kts | 217° |
| 2026-05-05 10:46 | 49.01179 | 43.38200 | 36026 ft | 478 kts | 217° |
| 2026-05-05 10:46 | 48.95943 | 43.31938 | 36037 ft | 478 kts | 217° |
| 2026-05-05 10:47 | 48.90705 | 43.25689 | 36034 ft | 478 kts | 217° |
| 2026-05-05 10:47 | 48.85458 | 43.19437 | 36033 ft | 479 kts | 217° |
| 2026-05-05 10:48 | 48.80275 | 43.13290 | 36008 ft | 465 kts | 216° |
| 2026-05-05 10:48 | 48.77748 | 43.10303 | 36017 ft | 454 kts | 216° |
| 2026-05-05 10:48 | 48.75261 | 43.07367 | 36020 ft | 452 kts | 216° |
| 2026-05-05 10:49 | 48.70292 | 43.01514 | 36019 ft | 452 kts | 216° |
| 2026-05-05 10:49 | 48.65319 | 42.95677 | 36016 ft | 452 kts | 216° |
| 2026-05-05 10:50 | 48.60348 | 42.89850 | 36011 ft | 452 kts | 216° |
| 2026-05-05 10:50 | 48.55392 | 42.84044 | 36021 ft | 452 kts | 216° |
| 2026-05-05 10:51 | 48.50402 | 42.78244 | 36014 ft | 452 kts | 215° |
| 2026-05-05 10:51 | 48.45439 | 42.72516 | 36006 ft | 452 kts | 215° |
| 2026-05-05 10:52 | 48.40438 | 42.66755 | 36007 ft | 452 kts | 215° |
| 2026-05-05 10:52 | 48.35436 | 42.61002 | 36010 ft | 452 kts | 215° |
| 2026-05-05 10:53 | 48.30431 | 42.55255 | 36006 ft | 452 kts | 215° |
| 2026-05-05 10:53 | 48.25422 | 42.49526 | 36008 ft | 453 kts | 215° |
| 2026-05-05 10:54 | 48.20410 | 42.43798 | 36007 ft | 453 kts | 215° |
| 2026-05-05 10:54 | 48.15390 | 42.38093 | 36016 ft | 461 kts | 214° |
| 2026-05-05 10:55 | 48.10212 | 42.32238 | 36021 ft | 469 kts | 214° |
| 2026-05-05 10:55 | 48.04991 | 42.26344 | 36019 ft | 470 kts | 214° |
| 2026-05-05 10:56 | 47.99759 | 42.20452 | 36023 ft | 471 kts | 214° |
| 2026-05-05 10:56 | 47.94523 | 42.14568 | 36014 ft | 471 kts | 214° |
| 2026-05-05 10:57 | 47.89287 | 42.08677 | 36014 ft | 472 kts | 214° |
| 2026-05-05 10:57 | 47.84036 | 42.02804 | 36022 ft | 472 kts | 214° |
| 2026-05-05 10:58 | 47.78777 | 41.96954 | 36030 ft | 472 kts | 214° |
| 2026-05-05 10:58 | 47.73522 | 41.91107 | 36035 ft | 472 kts | 214° |
| 2026-05-05 10:59 | 47.68273 | 41.85276 | 36033 ft | 471 kts | 214° |
| 2026-05-05 10:59 | 47.63025 | 41.79461 | 36037 ft | 471 kts | 214° |
| 2026-05-05 11:00 | 47.57762 | 41.73655 | 36040 ft | 471 kts | 214° |
| 2026-05-05 11:00 | 47.52541 | 41.67909 | 36030 ft | 471 kts | 214° |
| 2026-05-05 11:01 | 47.47244 | 41.62086 | 36034 ft | 471 kts | 214° |
| 2026-05-05 11:01 | 47.42027 | 41.56371 | 36053 ft | 469 kts | 214° |
| 2026-05-05 11:02 | 47.36796 | 41.50637 | 36043 ft | 468 kts | 214° |
| 2026-05-05 11:02 | 47.31572 | 41.44929 | 36046 ft | 467 kts | 214° |
| 2026-05-05 11:03 | 47.26347 | 41.39251 | 36046 ft | 466 kts | 214° |
| 2026-05-05 11:03 | 47.21126 | 41.33589 | 36048 ft | 466 kts | 213° |
| 2026-05-05 11:04 | 47.15910 | 41.27931 | 36036 ft | 466 kts | 213° |
| 2026-05-05 11:04 | 47.10698 | 41.22293 | 36039 ft | 465 kts | 213° |
| 2026-05-05 11:05 | 47.05476 | 41.16664 | 36051 ft | 465 kts | 213° |
| 2026-05-05 11:05 | 47.00273 | 41.11071 | 36046 ft | 463 kts | 213° |
| 2026-05-05 11:06 | 46.95087 | 41.05511 | 36052 ft | 461 kts | 213° |
| 2026-05-05 11:06 | 46.89915 | 40.99985 | 36044 ft | 460 kts | 213° |
| 2026-05-05 11:07 | 46.84755 | 40.94473 | 36045 ft | 459 kts | 213° |
| 2026-05-05 11:07 | 46.79590 | 40.88968 | 36041 ft | 459 kts | 213° |
| 2026-05-05 11:08 | 46.74457 | 40.83424 | 36036 ft | 459 kts | 214° |
| 2026-05-05 11:08 | 46.69358 | 40.77800 | 36042 ft | 459 kts | 214° |
| 2026-05-05 11:09 | 46.64264 | 40.72198 | 36031 ft | 459 kts | 214° |
| 2026-05-05 11:09 | 46.59149 | 40.66638 | 36024 ft | 458 kts | 212° |
| 2026-05-05 11:10 | 46.53692 | 40.61934 | 36019 ft | 456 kts | 206° |
| 2026-05-05 11:10 | 46.48183 | 40.57385 | 36023 ft | 456 kts | 206° |
| 2026-05-05 11:11 | 46.42664 | 40.52835 | 36025 ft | 456 kts | 206° |
| 2026-05-05 11:11 | 46.37145 | 40.48294 | 36022 ft | 456 kts | 205° |
| 2026-05-05 11:12 | 46.31279 | 40.45091 | 36025 ft | 449 kts | 191° |
| 2026-05-05 11:12 | 46.25231 | 40.42809 | 36029 ft | 448 kts | 192° |
| 2026-05-05 11:13 | 46.19243 | 40.40534 | 36026 ft | 448 kts | 192° |
| 2026-05-05 11:13 | 46.13216 | 40.38244 | 36025 ft | 448 kts | 192° |
| 2026-05-05 11:14 | 46.07192 | 40.35968 | 36027 ft | 448 kts | 192° |
| 2026-05-05 11:14 | 46.01163 | 40.33696 | 36022 ft | 448 kts | 191° |
| 2026-05-05 11:15 | 45.95118 | 40.31427 | 36018 ft | 448 kts | 191° |
| 2026-05-05 11:15 | 45.89083 | 40.29154 | 36015 ft | 448 kts | 192° |
| 2026-05-05 11:16 | 45.83043 | 40.26876 | 36013 ft | 448 kts | 192° |
| 2026-05-05 11:16 | 45.77059 | 40.24592 | 36010 ft | 449 kts | 195° |
| 2026-05-05 11:17 | 45.71334 | 40.20915 | 36002 ft | 452 kts | 203° |
| 2026-05-05 11:17 | 45.65679 | 40.16967 | 36006 ft | 452 kts | 203° |
| 2026-05-05 11:18 | 45.60016 | 40.13028 | 36002 ft | 452 kts | 203° |
| 2026-05-05 11:18 | 45.54350 | 40.09110 | 35993 ft | 452 kts | 203° |
| 2026-05-05 11:19 | 45.48685 | 40.05214 | 35983 ft | 452 kts | 203° |
| 2026-05-05 11:19 | 45.42915 | 40.01760 | 35994 ft | 448 kts | 192° |
| 2026-05-05 11:20 | 45.36840 | 40.00426 | 35991 ft | 444 kts | 184° |
| 2026-05-05 11:20 | 45.30694 | 39.99405 | 35990 ft | 445 kts | 184° |
| 2026-05-05 11:21 | 45.24552 | 39.98367 | 35987 ft | 445 kts | 184° |
| 2026-05-05 11:21 | 45.18392 | 39.97331 | 35984 ft | 445 kts | 184° |
| 2026-05-05 11:22 | 45.13269 | 39.96481 | 35975 ft | 446 kts | 184° |
| 2026-05-05 11:22 | 45.07105 | 39.95473 | 35976 ft | 445 kts | 184° |
| 2026-05-05 11:23 | 45.00949 | 39.94460 | 35974 ft | 446 kts | 184° |
| 2026-05-05 11:23 | 44.94786 | 39.93434 | 35986 ft | 446 kts | 184° |
| 2026-05-05 11:24 | 44.88622 | 39.92413 | 35978 ft | 446 kts | 184° |
| 2026-05-05 11:24 | 44.82463 | 39.91396 | 35970 ft | 446 kts | 184° |
| 2026-05-05 11:25 | 44.76299 | 39.90385 | 35983 ft | 446 kts | 185° |
| 2026-05-05 11:25 | 44.70133 | 39.89385 | 35974 ft | 446 kts | 185° |
| 2026-05-05 11:26 | 44.64006 | 39.88388 | 35970 ft | 446 kts | 185° |
| 2026-05-05 11:26 | 44.57841 | 39.87391 | 35964 ft | 446 kts | 185° |
| 2026-05-05 11:27 | 44.51693 | 39.86390 | 35691 ft | 442 kts | 185° |
| 2026-05-05 11:27 | 44.48637 | 39.85893 | 35446 ft | 441 kts | 185° |
| 2026-05-05 11:27 | 44.45591 | 39.85400 | 35207 ft | 441 kts | 184° |
| 2026-05-05 11:27 | 44.42529 | 39.84904 | 34538 ft | 445 kts | 184° |
| 2026-05-05 11:28 | 44.39425 | 39.84457 | 33611 ft | 450 kts | 180° |
| 2026-05-05 11:28 | 44.36292 | 39.84610 | 32654 ft | 450 kts | 169° |
| 2026-05-05 11:28 | 44.33262 | 39.85495 | 32159 ft | 439 kts | 160° |
| 2026-05-05 11:28 | 44.30335 | 39.86655 | 31575 ft | 436 kts | 160° |
| 2026-05-05 11:29 | 44.27430 | 39.87795 | 31014 ft | 432 kts | 160° |
| 2026-05-05 11:29 | 44.24547 | 39.88926 | 30433 ft | 429 kts | 159° |
| 2026-05-05 11:29 | 44.21684 | 39.90052 | 29833 ft | 426 kts | 159° |
| 2026-05-05 11:29 | 44.18848 | 39.91170 | 29260 ft | 420 kts | 159° |
| 2026-05-05 11:30 | 44.16061 | 39.92269 | 28718 ft | 414 kts | 159° |
| 2026-05-05 11:30 | 44.13310 | 39.93354 | 28182 ft | 408 kts | 160° |
| 2026-05-05 11:30 | 44.10602 | 39.94424 | 27661 ft | 401 kts | 160° |
| 2026-05-05 11:30 | 44.07935 | 39.95478 | 27149 ft | 396 kts | 160° |
| 2026-05-05 11:31 | 44.05302 | 39.96516 | 26650 ft | 391 kts | 160° |
| 2026-05-05 11:31 | 44.02695 | 39.97541 | 26174 ft | 387 kts | 160° |
| 2026-05-05 11:31 | 44.00118 | 39.98556 | 25694 ft | 383 kts | 162° |
| 2026-05-05 11:31 | 43.97571 | 39.99562 | 25228 ft | 379 kts | 161° |
| 2026-05-05 11:32 | 43.95050 | 40.00559 | 24768 ft | 375 kts | 162° |
| 2026-05-05 11:32 | 43.92558 | 40.01542 | 24317 ft | 370 kts | 162° |
| 2026-05-05 11:32 | 43.90093 | 40.02510 | 23877 ft | 367 kts | 162° |
| 2026-05-05 11:32 | 43.87648 | 40.03471 | 23422 ft | 363 kts | 162° |
| 2026-05-05 11:33 | 43.85235 | 40.04422 | 22950 ft | 358 kts | 162° |
| 2026-05-05 11:33 | 43.82852 | 40.05359 | 22520 ft | 353 kts | 162° |
| 2026-05-05 11:33 | 43.80508 | 40.06281 | 22099 ft | 348 kts | 162° |
| 2026-05-05 11:33 | 43.78187 | 40.07192 | 21674 ft | 344 kts | 162° |
| 2026-05-05 11:34 | 43.75893 | 40.08090 | 21248 ft | 341 kts | 163° |
| 2026-05-05 11:34 | 43.73621 | 40.08981 | 20828 ft | 337 kts | 163° |
| 2026-05-05 11:34 | 43.71353 | 40.09735 | 20402 ft | 335 kts | 171° |
| 2026-05-05 11:34 | 43.69030 | 40.09868 | 19969 ft | 333 kts | 183° |
| 2026-05-05 11:35 | 43.66742 | 40.09332 | 19603 ft | 340 kts | 194° |
| 2026-05-05 11:35 | 43.64495 | 40.08142 | 19228 ft | 350 kts | 202° |
| 2026-05-05 11:35 | 43.62278 | 40.06747 | 18844 ft | 350 kts | 202° |
| 2026-05-05 11:35 | 43.60066 | 40.05360 | 18457 ft | 349 kts | 202° |
| 2026-05-05 11:36 | 43.57859 | 40.03977 | 18080 ft | 347 kts | 202° |
| 2026-05-05 11:36 | 43.55667 | 40.02605 | 17694 ft | 345 kts | 202° |
| 2026-05-05 11:36 | 43.53482 | 40.01238 | 17323 ft | 344 kts | 202° |
| 2026-05-05 11:36 | 43.51336 | 39.99898 | 16963 ft | 342 kts | 202° |
| 2026-05-05 11:37 | 43.49176 | 39.98549 | 16594 ft | 340 kts | 202° |
| 2026-05-05 11:37 | 43.47027 | 39.97206 | 16233 ft | 338 kts | 202° |
| 2026-05-05 11:37 | 43.44865 | 39.95944 | 15858 ft | 336 kts | 197° |
| 2026-05-05 11:37 | 43.42647 | 39.94923 | 15327 ft | 336 kts | 197° |
| 2026-05-05 11:38 | 43.40432 | 39.93915 | 14833 ft | 335 kts | 197° |
| 2026-05-05 11:38 | 43.38215 | 39.92911 | 14320 ft | 335 kts | 197° |
| 2026-05-05 11:38 | 43.35998 | 39.91908 | 13828 ft | 335 kts | 197° |
| 2026-05-05 11:38 | 43.33782 | 39.90905 | 13287 ft | 335 kts | 197° |
| 2026-05-05 11:39 | 43.31579 | 39.89904 | 12820 ft | 332 kts | 197° |
| 2026-05-05 11:39 | 43.29388 | 39.88907 | 12331 ft | 331 kts | 197° |
| 2026-05-05 11:39 | 43.27207 | 39.87914 | 11836 ft | 329 kts | 197° |
| 2026-05-05 11:39 | 43.25066 | 39.86944 | 11356 ft | 328 kts | 197° |
| 2026-05-05 11:40 | 43.22902 | 39.85963 | 10870 ft | 327 kts | 197° |
| 2026-05-05 11:40 | 43.20747 | 39.84984 | 10382 ft | 326 kts | 198° |
| 2026-05-05 11:40 | 43.18620 | 39.84018 | 10177 ft | 316 kts | 198° |
| 2026-05-05 11:40 | 43.16576 | 39.83091 | 10055 ft | 303 kts | 198° |
| 2026-05-05 11:41 | 43.14607 | 39.82199 | 9919 ft | 292 kts | 198° |
| 2026-05-05 11:41 | 43.12694 | 39.81333 | 9555 ft | 289 kts | 198° |
| 2026-05-05 11:41 | 43.10783 | 39.80468 | 9145 ft | 288 kts | 198° |
| 2026-05-05 11:41 | 43.08878 | 39.79610 | 8642 ft | 290 kts | 198° |
| 2026-05-05 11:42 | 43.06975 | 39.78758 | 8235 ft | 288 kts | 198° |
| 2026-05-05 11:42 | 43.05087 | 39.77912 | 7859 ft | 286 kts | 198° |
| 2026-05-05 11:42 | 43.03211 | 39.77058 | 7438 ft | 283 kts | 201° |
| 2026-05-05 11:42 | 43.01653 | 39.75545 | 7169 ft | 277 kts | 235° |
| 2026-05-05 11:43 | 43.00996 | 39.73110 | 7046 ft | 275 kts | 269° |
| 2026-05-05 11:43 | 43.01453 | 39.70627 | 6923 ft | 272 kts | 304° |
| 2026-05-05 11:43 | 43.02852 | 39.68954 | 6800 ft | 270 kts | 338° |
| 2026-05-05 11:43 | 43.04681 | 39.68684 | 6680 ft | 269 kts | 13° |
| 2026-05-05 11:44 | 43.06345 | 39.69751 | 6562 ft | 270 kts | 31° |
| 2026-05-05 11:44 | 43.07944 | 39.71103 | 6437 ft | 270 kts | 31° |
| 2026-05-05 11:44 | 43.09546 | 39.72463 | 6170 ft | 270 kts | 31° |
| 2026-05-05 11:44 | 43.11135 | 39.73816 | 5793 ft | 267 kts | 31° |
| 2026-05-05 11:45 | 43.12693 | 39.75144 | 5409 ft | 266 kts | 31° |
| 2026-05-05 11:45 | 43.14256 | 39.76480 | 5029 ft | 264 kts | 31° |
| 2026-05-05 11:45 | 43.15811 | 39.77809 | 4646 ft | 262 kts | 30° |
| 2026-05-05 11:45 | 43.17357 | 39.79132 | 4257 ft | 261 kts | 30° |
| 2026-05-05 11:46 | 43.18929 | 39.80382 | 3873 ft | 260 kts | 20° |
| 2026-05-05 11:46 | 43.20660 | 39.81035 | 3493 ft | 258 kts | 10° |
| 2026-05-05 11:46 | 43.22426 | 39.81436 | 3090 ft | 257 kts | 7° |
| 2026-05-05 11:46 | 43.24206 | 39.81756 | 2678 ft | 257 kts | 5° |
| 2026-05-05 11:47 | 43.25950 | 39.82056 | 2528 ft | 246 kts | 6° |
| 2026-05-05 11:47 | 43.27551 | 39.82529 | 2455 ft | 234 kts | 22° |
| 2026-05-05 11:47 | 43.28948 | 39.83548 | 2394 ft | 218 kts | 28° |
| 2026-05-05 11:47 | 43.30229 | 39.84551 | 2277 ft | 206 kts | 27° |
| 2026-05-05 11:48 | 43.32683 | 39.86401 | 2108 ft | 190 kts | 25° |
| 2026-05-05 11:48 | 43.33787 | 39.87228 | 2035 ft | 173 kts | 25° |
| 2026-05-05 11:48 | 43.34813 | 39.87996 | 1877 ft | 165 kts | 26° |
| 2026-05-05 11:49 | 43.35769 | 39.88711 | 1710 ft | 153 kts | 27° |
| 2026-05-05 11:49 | 43.36689 | 39.89399 | 1510 ft | 149 kts | 25° |
| 2026-05-05 11:49 | 43.37594 | 39.90076 | 1318 ft | 147 kts | 26° |
| 2026-05-05 11:49 | 43.38487 | 39.90745 | 1125 ft | 145 kts | 25° |
| 2026-05-05 11:50 | 43.39365 | 39.91406 | 953 ft | 146 kts | 26° |
| 2026-05-05 11:50 | 43.40253 | 39.92077 | 810 ft | 144 kts | 25° |
| 2026-05-05 11:50 | 43.41142 | 39.92730 | 603 ft | 144 kts | 26° |
| 2026-05-05 11:50 | 43.42027 | 39.93397 | 429 ft | 145 kts | 25° |
| 2026-05-05 11:51 | 43.42909 | 39.94066 | 245 ft | 143 kts | 28° |
| 2026-05-05 11:51 | 43.43769 | 39.94716 | 77 ft | 139 kts | 28° |
| 2026-05-05 11:51 | 43.44577 | 39.95342 | 201 ft | 145 kts | 26° |
| 2026-05-05 11:51 | 43.45533 | 39.96067 | 887 ft | 162 kts | 32° |
| 2026-05-05 11:52 | 43.46254 | 39.97344 | 1447 ft | 183 kts | 71° |
| 2026-05-05 11:52 | 43.46236 | 39.99148 | 1658 ft | 204 kts | 109° |
| 2026-05-05 11:52 | 43.45349 | 40.00739 | 1834 ft | 218 kts | 146° |
| 2026-05-05 11:52 | 43.43899 | 40.01369 | 2353 ft | 223 kts | 176° |
| 2026-05-05 11:53 | 43.42341 | 40.01432 | 2941 ft | 227 kts | 185° |
| 2026-05-05 11:53 | 43.40839 | 40.01009 | 3003 ft | 209 kts | 196° |
| 2026-05-05 11:53 | 43.39534 | 40.00502 | 3001 ft | 185 kts | 197° |
| 2026-05-05 11:53 | 43.38333 | 40.00038 | 3001 ft | 180 kts | 198° |
| 2026-05-05 11:54 | 43.37098 | 39.99570 | 3005 ft | 185 kts | 200° |
| 2026-05-05 11:54 | 43.35891 | 39.98939 | 3007 ft | 186 kts | 205° |
| 2026-05-05 11:54 | 43.34704 | 39.98265 | 3009 ft | 187 kts | 205° |
| 2026-05-05 11:54 | 43.33508 | 39.97557 | 3009 ft | 187 kts | 205° |
| 2026-05-05 11:55 | 43.32310 | 39.96838 | 3010 ft | 187 kts | 206° |
| 2026-05-05 11:55 | 43.31116 | 39.96138 | 3007 ft | 187 kts | 206° |
| 2026-05-05 11:55 | 43.29930 | 39.95440 | 2876 ft | 184 kts | 205° |
| 2026-05-05 11:55 | 43.28739 | 39.94722 | 2253 ft | 196 kts | 206° |
| 2026-05-05 11:56 | 43.27468 | 39.93962 | 2026 ft | 202 kts | 205° |
| 2026-05-05 11:56 | 43.26339 | 39.92893 | 1990 ft | 191 kts | 231° |
| 2026-05-05 11:56 | 43.25768 | 39.91348 | 1996 ft | 174 kts | 259° |
| 2026-05-05 11:56 | 43.25764 | 39.89811 | 1779 ft | 155 kts | 282° |
| 2026-05-05 11:57 | 43.26002 | 39.88356 | 1468 ft | 157 kts | 283° |
| 2026-05-05 11:57 | 43.26257 | 39.86865 | 1494 ft | 163 kts | 286° |
| 2026-05-05 11:57 | 43.26791 | 39.85495 | 1496 ft | 164 kts | 309° |
| 2026-05-05 11:57 | 43.27689 | 39.84515 | 1499 ft | 167 kts | 331° |
| 2026-05-05 11:58 | 43.28817 | 39.84114 | 1507 ft | 170 kts | 355° |
| 2026-05-05 11:58 | 43.29985 | 39.84399 | 1511 ft | 176 kts | 19° |
| 2026-05-05 11:58 | 43.31083 | 39.85194 | 1520 ft | 183 kts | 26° |
| 2026-05-05 11:58 | 43.32201 | 39.86036 | 1509 ft | 184 kts | 25° |
| 2026-05-05 11:59 | 43.33336 | 39.86887 | 1509 ft | 185 kts | 25° |
| 2026-05-05 11:59 | 43.34457 | 39.87726 | 1503 ft | 187 kts | 28° |
| 2026-05-05 11:59 | 43.35604 | 39.88585 | 1506 ft | 188 kts | 27° |
| 2026-05-05 11:59 | 43.36713 | 39.89417 | 1439 ft | 175 kts | 26° |
| 2026-05-05 12:00 | 43.37771 | 39.90210 | 1265 ft | 171 kts | 26° |
| 2026-05-05 12:00 | 43.38780 | 39.90967 | 1051 ft | 156 kts | 25° |
| 2026-05-05 12:00 | 43.39700 | 39.91655 | 886 ft | 148 kts | 25° |
| 2026-05-05 12:00 | 43.40593 | 39.92320 | 703 ft | 145 kts | 26° |
| 2026-05-05 12:01 | 43.41479 | 39.92987 | 526 ft | 145 kts | 26° |
| 2026-05-05 12:01 | 43.42363 | 39.93650 | 326 ft | 144 kts | 25° |
| 2026-05-05 12:01 | 43.43237 | 39.94313 | 148 ft | 142 kts | 28° |
| 2026-05-05 12:01 | 43.44068 | 39.94936 | 75 ft | 126 kts | 28° |
| 2026-05-05 12:02 | 43.44634 | 39.95361 | 86 ft | 53 kts | 28° |
| 2026-05-05 12:02 | 43.44843 | 39.95522 | 89 ft | 17 kts | 29° |
| 2026-05-05 12:02 | 43.44956 | 39.95580 | 92 ft | 17 kts | 358° |
| 2026-05-05 12:02 | 43.45054 | 39.95519 | 93 ft | 14 kts | 332° |
| 2026-05-05 12:03 | 43.45094 | 39.95404 | 93 ft | 14 kts | 275° |
| 2026-05-05 12:03 | 43.45061 | 39.95265 | 89 ft | 17 kts | 244° |
| 2026-05-05 12:03 | 43.45008 | 39.95113 | 86 ft | 17 kts | 239° |
| 2026-05-05 12:03 | 43.44940 | 39.94970 | 81 ft | 19 kts | 246° |
| 2026-05-05 12:04 | 43.44880 | 39.94792 | 69 ft | 22 kts | 245° |
| 2026-05-05 12:04 | 43.44818 | 39.94611 | 68 ft | 13 kts | 245° |
| 2026-05-05 12:04 | 43.44806 | 39.94536 | 75 ft | 6 kts | 286° |
| 2026-05-05 12:04 | 43.44838 | 39.94506 | 68 ft | 6 kts | 333° |
| 2026-05-05 12:05 | 43.44849 | 39.94499 | 68 ft | 0 kts | 333° |